sensor_id;sensor_type;location;lat;lon;timestamp;temperature;humidity
4050;DHT22;2039;50.894;6.888;2022-10-31T00:02:23;14.40;99.90
4050;DHT22;2039;50.894;6.888;2022-10-31T00:04:49;14.40;99.90
4050;DHT22;2039;50.894;6.888;2022-10-31T00:07:14;14.40;99.90
4050;DHT22;2039;50.894;6.888;2022-10-31T00:09:40;14.40;99.90
4050;DHT22;2039;50.894;6.888;2022-10-31T00:12:05;14.40;99.90
4050;DHT22;2039;50.894;6.888;2022-10-31T00:14:31;14.40;99.90
4050;DHT22;2039;50.894;6.888;2022-10-31T00:16:57;14.40;99.90
4050;DHT22;2039;50.894;6.888;2022-10-31T00:19:22;14.40;99.90
4050;DHT22;2039;50.894;6.888;2022-10-31T00:21:48;14.30;99.90
4050;DHT22;2039;50.894;6.888;2022-10-31T00:24:16;14.30;99.90
4050;DHT22;2039;50.894;6.888;2022-10-31T00:26:42;14.30;99.90
4050;DHT22;2039;50.894;6.888;2022-10-31T00:29:07;14.30;99.90
4050;DHT22;2039;50.894;6.888;2022-10-31T00:31:33;14.30;99.90
4050;DHT22;2039;50.894;6.888;2022-10-31T00:34:02;14.30;99.90
4050;DHT22;2039;50.894;6.888;2022-10-31T00:36:28;14.30;99.90
4050;DHT22;2039;50.894;6.888;2022-10-31T00:38:54;14.20;99.90
4050;DHT22;2039;50.894;6.888;2022-10-31T00:41:20;14.20;99.90
4050;DHT22;2039;50.894;6.888;2022-10-31T00:43:46;14.30;99.90
4050;DHT22;2039;50.894;6.888;2022-10-31T00:46:12;14.30;99.90
4050;DHT22;2039;50.894;6.888;2022-10-31T00:48:38;14.30;99.90
4050;DHT22;2039;50.894;6.888;2022-10-31T00:51:04;14.30;99.90
4050;DHT22;2039;50.894;6.888;2022-10-31T00:53:30;14.30;99.90
4050;DHT22;2039;50.894;6.888;2022-10-31T00:55:56;14.30;99.90
4050;DHT22;2039;50.894;6.888;2022-10-31T00:58:22;14.30;99.90
4050;DHT22;2039;50.894;6.888;2022-10-31T01:00:50;14.30;99.90
4050;DHT22;2039;50.894;6.888;2022-10-31T01:03:21;14.30;99.90
4050;DHT22;2039;50.894;6.888;2022-10-31T01:06:06;14.30;99.90
4050;DHT22;2039;50.894;6.888;2022-10-31T01:08:33;14.20;99.90
4050;DHT22;2039;50.894;6.888;2022-10-31T01:11:08;14.20;99.90
4050;DHT22;2039;50.894;6.888;2022-10-31T01:13:35;14.20;99.90
4050;DHT22;2039;50.894;6.888;2022-10-31T01:16:06;14.30;99.90
4050;DHT22;2039;50.894;6.888;2022-10-31T01:18:32;14.20;99.90
4050;DHT22;2039;50.894;6.888;2022-10-31T01:21:05;14.30;99.90
4050;DHT22;2039;50.894;6.888;2022-10-31T01:23:32;14.20;99.90
4050;DHT22;2039;50.894;6.888;2022-10-31T01:26:18;14.20;99.90
4050;DHT22;2039;50.894;6.888;2022-10-31T01:28:50;14.20;99.90
4050;DHT22;2039;50.894;6.888;2022-10-31T01:31:18;14.10;99.90
4050;DHT22;2039;50.894;6.888;2022-10-31T01:33:44;14.20;99.90
4050;DHT22;2039;50.894;6.888;2022-10-31T01:36:23;14.20;99.90
4050;DHT22;2039;50.894;6.888;2022-10-31T01:38:51;14.20;99.90
4050;DHT22;2039;50.894;6.888;2022-10-31T01:41:19;14.20;99.90
4050;DHT22;2039;50.894;6.888;2022-10-31T01:43:50;14.10;99.90
4050;DHT22;2039;50.894;6.888;2022-10-31T01:46:20;14.10;99.90
4050;DHT22;2039;50.894;6.888;2022-10-31T01:48:47;14.10;99.90
4050;DHT22;2039;50.894;6.888;2022-10-31T01:51:13;14.10;99.90
4050;DHT22;2039;50.894;6.888;2022-10-31T01:53:42;14.10;99.90
4050;DHT22;2039;50.894;6.888;2022-10-31T01:56:08;14.10;99.90
4050;DHT22;2039;50.894;6.888;2022-10-31T01:58:34;14.10;99.90
4050;DHT22;2039;50.894;6.888;2022-10-31T02:01:00;14.00;99.90
4050;DHT22;2039;50.894;6.888;2022-10-31T02:03:27;14.10;99.90
4050;DHT22;2039;50.894;6.888;2022-10-31T02:05:55;14.00;99.90
4050;DHT22;2039;50.894;6.888;2022-10-31T02:08:23;14.10;99.90
4050;DHT22;2039;50.894;6.888;2022-10-31T02:10:51;14.00;99.90
4050;DHT22;2039;50.894;6.888;2022-10-31T02:13:17;14.00;99.90
4050;DHT22;2039;50.894;6.888;2022-10-31T02:15:47;14.00;99.90
4050;DHT22;2039;50.894;6.888;2022-10-31T02:18:14;14.00;99.90
4050;DHT22;2039;50.894;6.888;2022-10-31T02:30:07;13.90;99.90
4050;DHT22;2039;50.894;6.888;2022-10-31T02:39:09;13.80;99.90
4050;DHT22;2039;50.894;6.888;2022-10-31T02:49:28;13.70;99.90
4050;DHT22;2039;50.894;6.888;2022-10-31T02:51:55;13.70;99.90
4050;DHT22;2039;50.894;6.888;2022-10-31T02:54:26;13.70;99.90
4050;DHT22;2039;50.894;6.888;2022-10-31T02:57:00;13.70;99.90
4050;DHT22;2039;50.894;6.888;2022-10-31T02:59:29;13.70;99.90
4050;DHT22;2039;50.894;6.888;2022-10-31T03:02:09;13.70;99.90
4050;DHT22;2039;50.894;6.888;2022-10-31T03:07:42;13.70;99.90
4050;DHT22;2039;50.894;6.888;2022-10-31T03:15:19;13.70;99.90
4050;DHT22;2039;50.894;6.888;2022-10-31T03:17:57;13.70;99.90
4050;DHT22;2039;50.894;6.888;2022-10-31T03:20:30;13.70;99.90
4050;DHT22;2039;50.894;6.888;2022-10-31T03:22:59;13.60;99.90
4050;DHT22;2039;50.894;6.888;2022-10-31T03:25:27;13.60;99.90
4050;DHT22;2039;50.894;6.888;2022-10-31T03:27:53;13.60;99.90
4050;DHT22;2039;50.894;6.888;2022-10-31T03:30:20;13.60;99.90
4050;DHT22;2039;50.894;6.888;2022-10-31T03:32:54;13.60;99.90
4050;DHT22;2039;50.894;6.888;2022-10-31T03:35:23;13.60;99.90
4050;DHT22;2039;50.894;6.888;2022-10-31T03:37:50;13.60;99.90
4050;DHT22;2039;50.894;6.888;2022-10-31T03:40:19;13.60;99.90
4050;DHT22;2039;50.894;6.888;2022-10-31T03:42:54;13.60;99.90
4050;DHT22;2039;50.894;6.888;2022-10-31T03:45:44;13.60;99.90
4050;DHT22;2039;50.894;6.888;2022-10-31T03:48:10;13.60;99.90
4050;DHT22;2039;50.894;6.888;2022-10-31T03:50:49;13.60;99.90
4050;DHT22;2039;50.894;6.888;2022-10-31T03:53:57;13.60;99.90
4050;DHT22;2039;50.894;6.888;2022-10-31T03:59:13;13.60;99.90
4050;DHT22;2039;50.894;6.888;2022-10-31T04:01:47;13.60;99.90
4050;DHT22;2039;50.894;6.888;2022-10-31T04:04:14;13.50;99.90
4050;DHT22;2039;50.894;6.888;2022-10-31T04:06:42;13.40;99.90
4050;DHT22;2039;50.894;6.888;2022-10-31T04:09:09;13.40;99.90
4050;DHT22;2039;50.894;6.888;2022-10-31T04:11:44;13.40;99.90
4050;DHT22;2039;50.894;6.888;2022-10-31T04:14:11;13.20;99.90
4050;DHT22;2039;50.894;6.888;2022-10-31T04:16:40;13.10;99.90
4050;DHT22;2039;50.894;6.888;2022-10-31T04:19:07;13.10;99.90
4050;DHT22;2039;50.894;6.888;2022-10-31T04:21:33;13.10;99.90
4050;DHT22;2039;50.894;6.888;2022-10-31T04:23:58;13.10;99.90
4050;DHT22;2039;50.894;6.888;2022-10-31T04:26:25;13.20;99.90
4050;DHT22;2039;50.894;6.888;2022-10-31T04:28:50;13.20;99.90
4050;DHT22;2039;50.894;6.888;2022-10-31T04:31:16;13.20;99.90
4050;DHT22;2039;50.894;6.888;2022-10-31T04:33:42;13.20;99.90
4050;DHT22;2039;50.894;6.888;2022-10-31T04:36:08;13.20;99.90
4050;DHT22;2039;50.894;6.888;2022-10-31T04:38:34;13.20;99.90
4050;DHT22;2039;50.894;6.888;2022-10-31T04:41:00;13.20;99.90
4050;DHT22;2039;50.894;6.888;2022-10-31T04:43:25;13.00;99.90
4050;DHT22;2039;50.894;6.888;2022-10-31T04:45:51;13.00;99.90
4050;DHT22;2039;50.894;6.888;2022-10-31T04:48:17;13.00;99.90
4050;DHT22;2039;50.894;6.888;2022-10-31T04:50:42;13.10;99.90
4050;DHT22;2039;50.894;6.888;2022-10-31T04:53:08;13.00;99.90
4050;DHT22;2039;50.894;6.888;2022-10-31T04:55:35;13.10;99.90
4050;DHT22;2039;50.894;6.888;2022-10-31T04:58:01;13.10;99.90
4050;DHT22;2039;50.894;6.888;2022-10-31T05:00:27;13.10;99.90
4050;DHT22;2039;50.894;6.888;2022-10-31T05:02:55;13.20;99.90
4050;DHT22;2039;50.894;6.888;2022-10-31T05:05:24;13.10;99.90
4050;DHT22;2039;50.894;6.888;2022-10-31T05:07:50;13.00;99.90
4050;DHT22;2039;50.894;6.888;2022-10-31T05:10:22;13.10;99.90
4050;DHT22;2039;50.894;6.888;2022-10-31T05:12:49;12.90;99.90
4050;DHT22;2039;50.894;6.888;2022-10-31T05:15:16;13.00;99.90
4050;DHT22;2039;50.894;6.888;2022-10-31T05:17:42;13.00;99.90
4050;DHT22;2039;50.894;6.888;2022-10-31T05:20:09;12.90;99.90
4050;DHT22;2039;50.894;6.888;2022-10-31T05:22:35;13.00;99.90
4050;DHT22;2039;50.894;6.888;2022-10-31T05:25:00;12.90;99.90
4050;DHT22;2039;50.894;6.888;2022-10-31T05:27:26;12.70;99.90
4050;DHT22;2039;50.894;6.888;2022-10-31T05:29:52;12.70;99.90
4050;DHT22;2039;50.894;6.888;2022-10-31T05:32:17;12.60;99.90
4050;DHT22;2039;50.894;6.888;2022-10-31T05:34:43;12.70;99.90
4050;DHT22;2039;50.894;6.888;2022-10-31T05:37:09;12.60;99.90
4050;DHT22;2039;50.894;6.888;2022-10-31T05:39:34;12.60;99.90
4050;DHT22;2039;50.894;6.888;2022-10-31T05:42:00;12.60;99.90
4050;DHT22;2039;50.894;6.888;2022-10-31T05:44:25;12.60;99.90
4050;DHT22;2039;50.894;6.888;2022-10-31T05:46:51;12.50;99.90
4050;DHT22;2039;50.894;6.888;2022-10-31T05:49:17;12.50;99.90
4050;DHT22;2039;50.894;6.888;2022-10-31T05:51:43;12.50;99.90
4050;DHT22;2039;50.894;6.888;2022-10-31T05:54:11;12.50;99.90
4050;DHT22;2039;50.894;6.888;2022-10-31T05:56:37;12.60;99.90
4050;DHT22;2039;50.894;6.888;2022-10-31T05:59:03;12.60;99.90
4050;DHT22;2039;50.894;6.888;2022-10-31T06:01:28;12.60;99.90
4050;DHT22;2039;50.894;6.888;2022-10-31T06:03:54;12.60;99.90
4050;DHT22;2039;50.894;6.888;2022-10-31T06:06:19;12.70;99.90
4050;DHT22;2039;50.894;6.888;2022-10-31T06:08:45;12.60;99.90
4050;DHT22;2039;50.894;6.888;2022-10-31T06:11:11;12.60;99.90
4050;DHT22;2039;50.894;6.888;2022-10-31T06:13:36;12.60;99.90
4050;DHT22;2039;50.894;6.888;2022-10-31T06:16:02;12.70;99.90
4050;DHT22;2039;50.894;6.888;2022-10-31T06:18:28;12.70;99.90
4050;DHT22;2039;50.894;6.888;2022-10-31T06:20:53;12.80;99.90
4050;DHT22;2039;50.894;6.888;2022-10-31T06:23:19;12.70;99.90
4050;DHT22;2039;50.894;6.888;2022-10-31T06:25:49;12.80;99.90
4050;DHT22;2039;50.894;6.888;2022-10-31T06:28:14;12.80;99.90
4050;DHT22;2039;50.894;6.888;2022-10-31T06:30:40;12.80;99.90
4050;DHT22;2039;50.894;6.888;2022-10-31T06:33:06;12.80;99.90
4050;DHT22;2039;50.894;6.888;2022-10-31T06:35:32;12.80;99.90
4050;DHT22;2039;50.894;6.888;2022-10-31T06:37:57;12.80;99.90
4050;DHT22;2039;50.894;6.888;2022-10-31T06:40:23;12.80;99.90
4050;DHT22;2039;50.894;6.888;2022-10-31T06:42:59;12.80;99.90
4050;DHT22;2039;50.894;6.888;2022-10-31T06:45:28;12.80;99.90
4050;DHT22;2039;50.894;6.888;2022-10-31T06:47:55;12.70;99.90
4050;DHT22;2039;50.894;6.888;2022-10-31T06:50:21;12.80;99.90
4050;DHT22;2039;50.894;6.888;2022-10-31T06:52:54;12.70;99.90
4050;DHT22;2039;50.894;6.888;2022-10-31T06:55:21;12.70;99.90
4050;DHT22;2039;50.894;6.888;2022-10-31T06:57:59;12.70;99.90
4050;DHT22;2039;50.894;6.888;2022-10-31T07:00:26;12.80;99.90
4050;DHT22;2039;50.894;6.888;2022-10-31T07:02:56;12.90;99.90
4050;DHT22;2039;50.894;6.888;2022-10-31T07:05:28;12.90;99.90
4050;DHT22;2039;50.894;6.888;2022-10-31T07:07:56;12.80;99.90
4050;DHT22;2039;50.894;6.888;2022-10-31T07:10:23;12.80;99.90
4050;DHT22;2039;50.894;6.888;2022-10-31T07:13:00;12.80;99.90
4050;DHT22;2039;50.894;6.888;2022-10-31T07:15:27;12.80;99.90
4050;DHT22;2039;50.894;6.888;2022-10-31T07:17:54;12.80;99.90
4050;DHT22;2039;50.894;6.888;2022-10-31T07:20:23;12.70;99.90
4050;DHT22;2039;50.894;6.888;2022-10-31T07:22:49;12.60;99.90
4050;DHT22;2039;50.894;6.888;2022-10-31T07:25:15;12.70;99.90
4050;DHT22;2039;50.894;6.888;2022-10-31T07:27:42;12.80;99.90
4050;DHT22;2039;50.894;6.888;2022-10-31T07:30:10;12.90;99.90
4050;DHT22;2039;50.894;6.888;2022-10-31T07:32:46;13.00;99.90
4050;DHT22;2039;50.894;6.888;2022-10-31T07:35:20;13.10;99.90
4050;DHT22;2039;50.894;6.888;2022-10-31T07:37:47;13.20;99.90
4050;DHT22;2039;50.894;6.888;2022-10-31T07:40:13;13.10;99.90
4050;DHT22;2039;50.894;6.888;2022-10-31T07:42:47;13.10;99.90
4050;DHT22;2039;50.894;6.888;2022-10-31T07:45:18;13.10;99.90
4050;DHT22;2039;50.894;6.888;2022-10-31T07:47:45;13.20;99.90
4050;DHT22;2039;50.894;6.888;2022-10-31T07:50:23;13.20;99.90
4050;DHT22;2039;50.894;6.888;2022-10-31T07:53:08;13.30;99.90
4050;DHT22;2039;50.894;6.888;2022-10-31T07:55:34;13.20;99.90
4050;DHT22;2039;50.894;6.888;2022-10-31T07:58:02;13.10;99.90
4050;DHT22;2039;50.894;6.888;2022-10-31T08:00:28;13.10;99.90
4050;DHT22;2039;50.894;6.888;2022-10-31T08:03:09;13.20;99.90
4050;DHT22;2039;50.894;6.888;2022-10-31T08:05:35;13.20;99.90
4050;DHT22;2039;50.894;6.888;2022-10-31T08:08:02;13.20;99.90
4050;DHT22;2039;50.894;6.888;2022-10-31T08:10:28;13.20;99.90
4050;DHT22;2039;50.894;6.888;2022-10-31T08:13:03;13.20;99.90
4050;DHT22;2039;50.894;6.888;2022-10-31T08:15:29;13.00;99.90
4050;DHT22;2039;50.894;6.888;2022-10-31T08:17:55;13.00;99.90
4050;DHT22;2039;50.894;6.888;2022-10-31T08:20:21;12.90;99.90
4050;DHT22;2039;50.894;6.888;2022-10-31T08:22:57;13.00;99.90
4050;DHT22;2039;50.894;6.888;2022-10-31T08:25:27;12.90;99.90
4050;DHT22;2039;50.894;6.888;2022-10-31T08:27:55;13.00;99.90
4050;DHT22;2039;50.894;6.888;2022-10-31T08:30:23;13.00;99.90
4050;DHT22;2039;50.894;6.888;2022-10-31T08:33:01;13.00;99.90
4050;DHT22;2039;50.894;6.888;2022-10-31T08:35:27;13.00;99.90
4050;DHT22;2039;50.894;6.888;2022-10-31T08:37:54;13.00;99.90
4050;DHT22;2039;50.894;6.888;2022-10-31T08:40:20;13.10;99.90
4050;DHT22;2039;50.894;6.888;2022-10-31T08:42:46;13.10;99.90
4050;DHT22;2039;50.894;6.888;2022-10-31T08:45:12;13.20;99.90
4050;DHT22;2039;50.894;6.888;2022-10-31T08:47:37;13.30;99.90
4050;DHT22;2039;50.894;6.888;2022-10-31T08:50:03;13.40;99.90
4050;DHT22;2039;50.894;6.888;2022-10-31T08:52:29;13.50;99.90
4050;DHT22;2039;50.894;6.888;2022-10-31T08:54:55;13.60;99.90
4050;DHT22;2039;50.894;6.888;2022-10-31T08:57:22;13.60;99.90
4050;DHT22;2039;50.894;6.888;2022-10-31T08:59:48;13.60;99.90
4050;DHT22;2039;50.894;6.888;2022-10-31T09:02:14;13.60;99.90
4050;DHT22;2039;50.894;6.888;2022-10-31T09:04:39;13.70;99.90
4050;DHT22;2039;50.894;6.888;2022-10-31T09:07:05;13.70;99.90
4050;DHT22;2039;50.894;6.888;2022-10-31T09:09:30;13.70;99.90
4050;DHT22;2039;50.894;6.888;2022-10-31T09:11:56;13.70;99.90
4050;DHT22;2039;50.894;6.888;2022-10-31T09:14:22;13.80;99.90
4050;DHT22;2039;50.894;6.888;2022-10-31T09:16:47;13.80;99.90
4050;DHT22;2039;50.894;6.888;2022-10-31T09:19:13;14.00;99.90
4050;DHT22;2039;50.894;6.888;2022-10-31T09:21:39;14.00;99.90
4050;DHT22;2039;50.894;6.888;2022-10-31T09:24:05;13.90;99.90
4050;DHT22;2039;50.894;6.888;2022-10-31T09:26:30;13.90;99.90
4050;DHT22;2039;50.894;6.888;2022-10-31T09:28:56;13.90;99.90
4050;DHT22;2039;50.894;6.888;2022-10-31T09:31:23;14.00;99.90
4050;DHT22;2039;50.894;6.888;2022-10-31T09:33:49;14.00;99.90
4050;DHT22;2039;50.894;6.888;2022-10-31T09:36:15;14.00;99.90
4050;DHT22;2039;50.894;6.888;2022-10-31T09:38:40;14.10;99.90
4050;DHT22;2039;50.894;6.888;2022-10-31T09:47:09;14.30;99.90
4050;DHT22;2039;50.894;6.888;2022-10-31T09:49:53;14.40;99.90
4050;DHT22;2039;50.894;6.888;2022-10-31T09:52:30;14.60;99.90
4050;DHT22;2039;50.894;6.888;2022-10-31T09:57:33;14.90;99.90
4050;DHT22;2039;50.894;6.888;2022-10-31T09:59:59;14.90;99.90
4050;DHT22;2039;50.894;6.888;2022-10-31T10:02:39;14.90;99.90
4050;DHT22;2039;50.894;6.888;2022-10-31T10:05:12;15.00;99.90
4050;DHT22;2039;50.894;6.888;2022-10-31T10:07:59;15.10;99.90
4050;DHT22;2039;50.894;6.888;2022-10-31T10:32:36;15.90;99.90
4050;DHT22;2039;50.894;6.888;2022-10-31T10:35:23;16.00;99.90
4050;DHT22;2039;50.894;6.888;2022-10-31T10:37:53;16.10;99.90
4050;DHT22;2039;50.894;6.888;2022-10-31T10:40:24;16.20;99.90
4050;DHT22;2039;50.894;6.888;2022-10-31T10:49:19;16.10;99.90
4050;DHT22;2039;50.894;6.888;2022-10-31T10:52:29;16.10;99.90
4050;DHT22;2039;50.894;6.888;2022-10-31T10:57:58;16.10;99.90
4050;DHT22;2039;50.894;6.888;2022-10-31T11:00:34;16.10;99.90
4050;DHT22;2039;50.894;6.888;2022-10-31T11:03:01;16.10;99.90
4050;DHT22;2039;50.894;6.888;2022-10-31T11:05:51;16.10;99.90
4050;DHT22;2039;50.894;6.888;2022-10-31T11:08:24;16.20;99.90
4050;DHT22;2039;50.894;6.888;2022-10-31T11:11:02;16.30;99.90
4050;DHT22;2039;50.894;6.888;2022-10-31T11:13:30;16.40;99.90
4050;DHT22;2039;50.894;6.888;2022-10-31T11:18:35;16.70;99.90
4050;DHT22;2039;50.894;6.888;2022-10-31T11:21:03;16.80;99.90
4050;DHT22;2039;50.894;6.888;2022-10-31T11:23:30;16.80;99.90
4050;DHT22;2039;50.894;6.888;2022-10-31T11:25:59;16.70;99.90
4050;DHT22;2039;50.894;6.888;2022-10-31T11:28:27;16.60;99.90
4050;DHT22;2039;50.894;6.888;2022-10-31T11:30:57;16.50;99.90
4050;DHT22;2039;50.894;6.888;2022-10-31T11:33:39;16.50;99.90
4050;DHT22;2039;50.894;6.888;2022-10-31T11:36:24;16.60;99.90
4050;DHT22;2039;50.894;6.888;2022-10-31T11:38:51;16.60;99.90
4050;DHT22;2039;50.894;6.888;2022-10-31T11:41:27;16.60;99.90
4050;DHT22;2039;50.894;6.888;2022-10-31T11:43:56;16.60;99.90
4050;DHT22;2039;50.894;6.888;2022-10-31T11:46:32;16.70;99.90
4050;DHT22;2039;50.894;6.888;2022-10-31T11:48:59;16.70;99.90
4050;DHT22;2039;50.894;6.888;2022-10-31T11:51:31;16.90;99.90
4050;DHT22;2039;50.894;6.888;2022-10-31T11:53:59;16.90;99.90
4050;DHT22;2039;50.894;6.888;2022-10-31T11:56:27;17.00;99.90
4050;DHT22;2039;50.894;6.888;2022-10-31T11:59:34;17.00;99.90
4050;DHT22;2039;50.894;6.888;2022-10-31T12:02:01;17.00;99.90
4050;DHT22;2039;50.894;6.888;2022-10-31T12:07:27;17.00;99.90
4050;DHT22;2039;50.894;6.888;2022-10-31T12:09:53;17.00;99.90
4050;DHT22;2039;50.894;6.888;2022-10-31T12:12:37;17.10;99.90
4050;DHT22;2039;50.894;6.888;2022-10-31T12:22:59;17.30;99.90
4050;DHT22;2039;50.894;6.888;2022-10-31T12:39:50;17.40;99.90
4050;DHT22;2039;50.894;6.888;2022-10-31T12:45:51;17.40;99.90
4050;DHT22;2039;50.894;6.888;2022-10-31T12:54:28;17.30;99.90
4050;DHT22;2039;50.894;6.888;2022-10-31T12:56:36;17.40;99.90
4050;DHT22;2039;50.894;6.888;2022-10-31T13:04:44;17.40;99.90
4050;DHT22;2039;50.894;6.888;2022-10-31T13:12:40;17.50;99.90
4050;DHT22;2039;50.894;6.888;2022-10-31T13:15:18;17.50;99.90
4050;DHT22;2039;50.894;6.888;2022-10-31T13:17:50;17.50;99.90
4050;DHT22;2039;50.894;6.888;2022-10-31T13:20:38;17.60;99.90
4050;DHT22;2039;50.894;6.888;2022-10-31T13:23:23;17.60;99.90
4050;DHT22;2039;50.894;6.888;2022-10-31T13:25:53;17.60;99.90
4050;DHT22;2039;50.894;6.888;2022-10-31T13:28:43;17.70;99.90
4050;DHT22;2039;50.894;6.888;2022-10-31T13:31:10;17.60;99.90
4050;DHT22;2039;50.894;6.888;2022-10-31T13:33:40;17.70;99.90
4050;DHT22;2039;50.894;6.888;2022-10-31T13:36:42;17.60;99.90
4050;DHT22;2039;50.894;6.888;2022-10-31T13:44:51;17.70;99.90
4050;DHT22;2039;50.894;6.888;2022-10-31T13:49:47;17.70;99.90
4050;DHT22;2039;50.894;6.888;2022-10-31T13:52:14;17.60;99.90
4050;DHT22;2039;50.894;6.888;2022-10-31T13:54:48;17.70;99.90
4050;DHT22;2039;50.894;6.888;2022-10-31T13:57:21;17.60;99.90
4050;DHT22;2039;50.894;6.888;2022-10-31T14:00:21;17.60;99.90
4050;DHT22;2039;50.894;6.888;2022-10-31T14:02:47;17.70;99.90
4050;DHT22;2039;50.894;6.888;2022-10-31T14:07:55;17.70;99.90
4050;DHT22;2039;50.894;6.888;2022-10-31T14:10:28;17.70;99.90
4050;DHT22;2039;50.894;6.888;2022-10-31T14:15:52;17.70;99.90
4050;DHT22;2039;50.894;6.888;2022-10-31T14:18:23;17.80;99.90
4050;DHT22;2039;50.894;6.888;2022-10-31T14:20:50;17.70;99.90
4050;DHT22;2039;50.894;6.888;2022-10-31T14:23:39;17.70;99.90
4050;DHT22;2039;50.894;6.888;2022-10-31T14:28:53;17.80;99.90
4050;DHT22;2039;50.894;6.888;2022-10-31T14:31:41;17.80;99.90
4050;DHT22;2039;50.894;6.888;2022-10-31T14:37:20;17.80;99.90
4050;DHT22;2039;50.894;6.888;2022-10-31T14:53:17;17.90;99.90
4050;DHT22;2039;50.894;6.888;2022-10-31T14:55:47;17.90;99.90
4050;DHT22;2039;50.894;6.888;2022-10-31T14:58:38;17.90;99.90
4050;DHT22;2039;50.894;6.888;2022-10-31T15:01:05;17.90;99.90
4050;DHT22;2039;50.894;6.888;2022-10-31T15:03:38;17.90;99.90
4050;DHT22;2039;50.894;6.888;2022-10-31T15:06:15;17.90;99.90
4050;DHT22;2039;50.894;6.888;2022-10-31T15:08:50;17.90;99.90
4050;DHT22;2039;50.894;6.888;2022-10-31T15:11:25;17.90;99.90
4050;DHT22;2039;50.894;6.888;2022-10-31T15:13:52;17.90;99.90
4050;DHT22;2039;50.894;6.888;2022-10-31T15:16:21;17.90;99.90
4050;DHT22;2039;50.894;6.888;2022-10-31T15:18:59;17.80;99.90
4050;DHT22;2039;50.894;6.888;2022-10-31T15:21:27;17.80;99.90
4050;DHT22;2039;50.894;6.888;2022-10-31T15:23:58;17.80;99.90
4050;DHT22;2039;50.894;6.888;2022-10-31T15:26:29;17.80;99.90
4050;DHT22;2039;50.894;6.888;2022-10-31T15:29:19;17.70;99.90
4050;DHT22;2039;50.894;6.888;2022-10-31T15:31:55;17.80;99.90
4050;DHT22;2039;50.894;6.888;2022-10-31T15:36:57;17.70;99.90
4050;DHT22;2039;50.894;6.888;2022-10-31T15:39:22;17.70;99.90
4050;DHT22;2039;50.894;6.888;2022-10-31T15:41:51;17.70;99.90
4050;DHT22;2039;50.894;6.888;2022-10-31T15:44:40;17.60;99.90
4050;DHT22;2039;50.894;6.888;2022-10-31T15:47:17;17.60;99.90
4050;DHT22;2039;50.894;6.888;2022-10-31T15:49:52;17.60;99.90
4050;DHT22;2039;50.894;6.888;2022-10-31T15:55:05;17.50;99.90
4050;DHT22;2039;50.894;6.888;2022-10-31T15:57:43;17.40;99.90
4050;DHT22;2039;50.894;6.888;2022-10-31T16:13:34;17.00;99.90
4050;DHT22;2039;50.894;6.888;2022-10-31T16:16:03;16.90;99.90
4050;DHT22;2039;50.894;6.888;2022-10-31T16:18:35;16.80;99.90
4050;DHT22;2039;50.894;6.888;2022-10-31T16:21:03;16.80;99.90
4050;DHT22;2039;50.894;6.888;2022-10-31T16:23:29;16.70;99.90
4050;DHT22;2039;50.894;6.888;2022-10-31T16:25:54;16.70;99.90
4050;DHT22;2039;50.894;6.888;2022-10-31T16:28:23;16.60;99.90
4050;DHT22;2039;50.894;6.888;2022-10-31T16:30:51;16.60;99.90
4050;DHT22;2039;50.894;6.888;2022-10-31T16:35:49;16.60;99.90
4050;DHT22;2039;50.894;6.888;2022-10-31T16:38:15;16.50;99.90
4050;DHT22;2039;50.894;6.888;2022-10-31T16:40:41;16.50;99.90
4050;DHT22;2039;50.894;6.888;2022-10-31T16:43:12;16.50;99.90
4050;DHT22;2039;50.894;6.888;2022-10-31T16:45:43;16.50;99.90
4050;DHT22;2039;50.894;6.888;2022-10-31T16:48:15;16.50;99.90
4050;DHT22;2039;50.894;6.888;2022-10-31T16:50:44;16.50;99.90
4050;DHT22;2039;50.894;6.888;2022-10-31T16:53:11;16.50;99.90
4050;DHT22;2039;50.894;6.888;2022-10-31T16:55:59;16.50;99.90
4050;DHT22;2039;50.894;6.888;2022-10-31T16:58:31;16.50;99.90
4050;DHT22;2039;50.894;6.888;2022-10-31T17:00:59;16.50;99.90
4050;DHT22;2039;50.894;6.888;2022-10-31T17:03:25;16.50;99.90
4050;DHT22;2039;50.894;6.888;2022-10-31T17:05:51;16.50;99.90
4050;DHT22;2039;50.894;6.888;2022-10-31T17:08:17;16.50;99.90
4050;DHT22;2039;50.894;6.888;2022-10-31T17:10:44;16.50;99.90
4050;DHT22;2039;50.894;6.888;2022-10-31T17:13:19;16.40;99.90
4050;DHT22;2039;50.894;6.888;2022-10-31T17:15:48;16.30;99.90
4050;DHT22;2039;50.894;6.888;2022-10-31T17:18:15;16.30;99.90
4050;DHT22;2039;50.894;6.888;2022-10-31T17:20:42;16.20;99.90
4050;DHT22;2039;50.894;6.888;2022-10-31T17:23:10;16.20;99.90
4050;DHT22;2039;50.894;6.888;2022-10-31T17:25:36;16.20;99.90
4050;DHT22;2039;50.894;6.888;2022-10-31T17:28:02;16.20;99.90
4050;DHT22;2039;50.894;6.888;2022-10-31T17:30:27;16.10;99.90
4050;DHT22;2039;50.894;6.888;2022-10-31T17:32:53;16.10;99.90
4050;DHT22;2039;50.894;6.888;2022-10-31T17:35:23;16.10;99.90
4050;DHT22;2039;50.894;6.888;2022-10-31T17:37:49;16.10;99.90
4050;DHT22;2039;50.894;6.888;2022-10-31T17:40:17;16.20;99.90
4050;DHT22;2039;50.894;6.888;2022-10-31T17:42:54;16.20;99.90
4050;DHT22;2039;50.894;6.888;2022-10-31T17:45:22;16.10;99.90
4050;DHT22;2039;50.894;6.888;2022-10-31T17:47:49;16.10;99.90
4050;DHT22;2039;50.894;6.888;2022-10-31T17:50:21;16.10;99.90
4050;DHT22;2039;50.894;6.888;2022-10-31T17:52:48;16.10;99.90
4050;DHT22;2039;50.894;6.888;2022-10-31T17:55:14;16.10;99.90
4050;DHT22;2039;50.894;6.888;2022-10-31T17:57:40;16.10;99.90
4050;DHT22;2039;50.894;6.888;2022-10-31T18:00:10;16.10;99.90
4050;DHT22;2039;50.894;6.888;2022-10-31T18:02:36;16.10;99.90
4050;DHT22;2039;50.894;6.888;2022-10-31T18:05:03;16.10;99.90
4050;DHT22;2039;50.894;6.888;2022-10-31T18:07:32;16.00;99.90
4050;DHT22;2039;50.894;6.888;2022-10-31T18:09:58;16.00;99.90
4050;DHT22;2039;50.894;6.888;2022-10-31T18:12:24;16.10;99.90
4050;DHT22;2039;50.894;6.888;2022-10-31T18:14:51;16.00;99.90
4050;DHT22;2039;50.894;6.888;2022-10-31T18:17:17;16.00;99.90
4050;DHT22;2039;50.894;6.888;2022-10-31T18:19:43;16.10;99.90
4050;DHT22;2039;50.894;6.888;2022-10-31T18:22:10;16.00;99.90
4050;DHT22;2039;50.894;6.888;2022-10-31T18:24:36;16.00;99.90
4050;DHT22;2039;50.894;6.888;2022-10-31T18:27:01;16.00;99.90
4050;DHT22;2039;50.894;6.888;2022-10-31T18:29:27;16.00;99.90
4050;DHT22;2039;50.894;6.888;2022-10-31T18:31:54;16.00;99.90
4050;DHT22;2039;50.894;6.888;2022-10-31T18:34:20;15.90;99.90
4050;DHT22;2039;50.894;6.888;2022-10-31T18:36:46;15.90;99.90
4050;DHT22;2039;50.894;6.888;2022-10-31T18:39:12;15.90;99.90
4050;DHT22;2039;50.894;6.888;2022-10-31T18:41:38;15.90;99.90
4050;DHT22;2039;50.894;6.888;2022-10-31T18:44:05;15.90;99.90
4050;DHT22;2039;50.894;6.888;2022-10-31T18:46:31;15.90;99.90
4050;DHT22;2039;50.894;6.888;2022-10-31T18:48:57;15.90;99.90
4050;DHT22;2039;50.894;6.888;2022-10-31T18:51:23;16.00;99.90
4050;DHT22;2039;50.894;6.888;2022-10-31T18:53:53;15.90;99.90
4050;DHT22;2039;50.894;6.888;2022-10-31T18:56:20;15.90;99.90
4050;DHT22;2039;50.894;6.888;2022-10-31T18:58:46;15.90;99.90
4050;DHT22;2039;50.894;6.888;2022-10-31T19:01:13;15.90;99.90
4050;DHT22;2039;50.894;6.888;2022-10-31T19:03:39;15.90;99.90
4050;DHT22;2039;50.894;6.888;2022-10-31T19:06:06;15.90;99.90
4050;DHT22;2039;50.894;6.888;2022-10-31T19:08:32;15.90;99.90
4050;DHT22;2039;50.894;6.888;2022-10-31T19:11:09;15.90;99.90
4050;DHT22;2039;50.894;6.888;2022-10-31T19:13:36;15.80;99.90
4050;DHT22;2039;50.894;6.888;2022-10-31T19:16:08;15.80;99.90